createdAt,value
2022-09-28T00:00:16.227Z,110.07
2022-09-28T00:02:44.579Z,109.63
2022-09-28T00:05:13.329Z,110.77
2022-09-28T00:07:41.554Z,109.87
2022-09-28T00:10:10.711Z,107.57
2022-09-28T00:12:40.480Z,111.03
2022-09-28T00:15:11.027Z,108.83
2022-09-28T00:17:39.166Z,111.27
2022-09-28T00:20:07.884Z,108.53
2022-09-28T00:22:35.916Z,106.93
2022-09-28T00:25:04.131Z,108.77
2022-09-28T00:27:32.301Z,109.03
2022-09-28T00:30:00.626Z,108.20
2022-09-28T00:32:30.100Z,108.10
2022-09-28T00:34:58.271Z,107.23
2022-09-28T00:37:26.567Z,108.90
2022-09-28T00:39:54.844Z,110.33
2022-09-28T00:42:25.163Z,111.77
2022-09-28T00:44:55.988Z,109.50
2022-09-28T00:47:43.484Z,111.07
2022-09-28T00:50:31.205Z,108.83
2022-09-28T00:53:06.343Z,108.97
2022-09-28T00:55:40.316Z,108.47
2022-09-28T00:58:12.444Z,110.63
2022-09-28T01:00:41.692Z,110.00
2022-09-28T01:03:11.971Z,109.10
2022-09-28T01:05:41.586Z,112.50
2022-09-28T01:08:11.125Z,111.90
2022-09-28T01:10:43.640Z,110.40
2022-09-28T01:13:12.602Z,112.03
2022-09-28T01:15:44.524Z,113.50
2022-09-28T01:18:19.536Z,111.30
2022-09-28T01:20:58.755Z,110.03
2022-09-28T01:23:42.265Z,110.00
2022-09-28T01:26:47.804Z,110.07
2022-09-28T01:29:22.005Z,110.47
2022-09-28T01:31:55.280Z,109.20
2022-09-28T01:34:30.465Z,110.87
2022-09-28T01:37:02.121Z,109.67
2022-09-28T01:39:34.701Z,110.33
2022-09-28T01:42:09.557Z,111.97
2022-09-28T01:44:41.488Z,110.97
2022-09-28T01:47:12.736Z,110.03
2022-09-28T01:49:46.783Z,110.57
2022-09-28T01:52:20.152Z,110.50
2022-09-28T01:54:53.094Z,110.50
2022-09-28T01:57:27.071Z,108.73
2022-09-28T02:00:01.083Z,108.77
2022-09-28T02:02:34.467Z,110.50
2022-09-28T02:05:08.469Z,108.43
2022-09-28T02:07:42.557Z,109.87
2022-09-28T02:10:16.530Z,112.10
2022-09-28T02:12:49.720Z,110.67
2022-09-28T02:15:21.469Z,110.60
2022-09-28T02:17:50.370Z,106.23
2022-09-28T02:20:20.959Z,111.37
2022-09-28T02:22:51.833Z,110.17
2022-09-28T02:25:28.791Z,108.27
2022-09-28T02:28:01.775Z,107.70
2022-09-28T02:30:31.812Z,108.43
2022-09-28T02:33:04.546Z,108.40
2022-09-28T02:35:34.999Z,107.37
2022-09-28T02:38:03.350Z,104.43
2022-09-28T02:40:34.758Z,102.70
2022-09-28T02:43:14.267Z,105.80
2022-09-28T02:45:53.763Z,105.50
2022-09-28T02:48:43.572Z,109.67
2022-09-28T02:51:32.033Z,110.50
2022-09-28T02:54:22.455Z,109.97
2022-09-28T02:57:04.555Z,111.07
2022-09-28T02:59:45.701Z,111.17
2022-09-28T03:02:26.588Z,107.93
2022-09-28T03:05:08.277Z,110.40
2022-09-28T03:07:39.613Z,112.93
2022-09-28T03:10:16.124Z,110.90
2022-09-28T03:12:46.345Z,109.67
2022-09-28T03:15:23.484Z,107.83
2022-09-28T03:17:51.654Z,108.27
2022-09-28T03:20:20.337Z,111.43
2022-09-28T03:23:00.525Z,111.47
2022-09-28T03:25:37.891Z,111.47
2022-09-28T03:28:06.052Z,110.10
2022-09-28T03:30:43.039Z,111.20
2022-09-28T03:33:11.274Z,111.20
2022-09-28T03:35:39.575Z,113.90
2022-09-28T03:38:07.735Z,112.13
2022-09-28T03:40:35.998Z,110.30
2022-09-28T03:43:04.410Z,112.37
2022-09-28T03:45:33.618Z,112.50
2022-09-28T03:48:03.383Z,112.27
2022-09-28T03:50:31.333Z,115.17
2022-09-28T03:53:04.031Z,111.40
2022-09-28T03:55:33.969Z,113.40
2022-09-28T03:58:03.349Z,110.90
2022-09-28T04:00:31.861Z,108.77
2022-09-28T04:03:00.013Z,109.47
2022-09-28T04:05:29.615Z,110.53
2022-09-28T04:07:58.953Z,113.27
2022-09-28T04:10:27.405Z,119.67
2022-09-28T04:12:56.797Z,113.20
2022-09-28T04:15:25.234Z,114.03
2022-09-28T04:17:53.738Z,113.50
2022-09-28T04:20:22.170Z,110.57
2022-09-28T04:22:51.780Z,109.83
2022-09-28T04:25:19.978Z,107.37
2022-09-28T04:28:05.515Z,106.50
2022-09-28T04:30:33.692Z,105.83
2022-09-28T04:33:01.959Z,106.30
2022-09-28T04:35:30.241Z,106.00
2022-09-28T04:37:59.964Z,107.17
2022-09-28T04:40:28.265Z,109.20
2022-09-28T04:42:56.922Z,108.73
2022-09-28T04:45:26.246Z,112.33
2022-09-28T04:47:54.705Z,112.23
2022-09-28T04:50:22.913Z,110.13
2022-09-28T04:52:51.067Z,110.70
2022-09-28T04:55:20.716Z,109.20
2022-09-28T04:57:48.867Z,111.37
2022-09-28T05:00:17.312Z,109.77
2022-09-28T05:02:45.740Z,109.70
2022-09-28T05:05:13.976Z,115.30
2022-09-28T05:07:42.843Z,113.97
2022-09-28T05:10:11.246Z,109.13
2022-09-28T05:12:40.856Z,108.17
2022-09-28T05:15:09.470Z,106.03
2022-09-28T05:17:37.624Z,103.40
2022-09-28T05:20:06.750Z,108.03
2022-09-28T05:22:35.089Z,104.50
2022-09-28T05:25:03.765Z,119.53
2022-09-28T05:27:31.962Z,117.57
2022-09-28T05:30:01.637Z,118.72
2022-09-28T05:32:30.010Z,119.73
2022-09-28T05:35:01.125Z,118.73
2022-09-28T05:37:29.393Z,120.10
2022-09-28T05:39:58.648Z,119.07
2022-09-28T05:42:27.044Z,117.97
2022-09-28T05:44:55.201Z,114.13
2022-09-28T05:47:25.664Z,116.17
2022-09-28T05:49:54.275Z,112.73
2022-09-28T05:52:22.900Z,115.47
2022-09-28T05:54:51.127Z,111.00
2022-09-28T05:57:19.262Z,113.53
2022-09-28T05:59:47.435Z,111.53
2022-09-28T06:02:15.756Z,107.87
2022-09-28T06:04:45.368Z,111.20
2022-09-28T06:07:13.515Z,110.07
2022-09-28T06:09:41.681Z,109.00
2022-09-28T06:12:10.435Z,113.80
2022-09-28T06:14:39.014Z,112.67
2022-09-28T06:17:07.140Z,114.17
2022-09-28T06:19:35.316Z,117.07
2022-09-28T06:22:06.126Z,115.23
2022-09-28T06:24:34.372Z,118.70
2022-09-28T06:27:02.454Z,124.57
2022-09-28T06:29:31.358Z,124.60
2022-09-28T06:31:59.557Z,119.97
2022-09-28T06:34:27.782Z,130.93
2022-09-28T06:36:56.121Z,127.43
2022-09-28T06:39:25.725Z,130.20
2022-09-28T06:41:53.919Z,131.63
2022-09-28T06:44:22.065Z,132.00
2022-09-28T06:46:50.984Z,133.20
2022-09-28T06:49:19.685Z,133.33
2022-09-28T06:51:47.911Z,130.43
2022-09-28T06:54:16.273Z,128.83
2022-09-28T06:56:45.842Z,124.33
2022-09-28T06:59:14.151Z,129.13
2022-09-28T07:01:42.432Z,127.40
2022-09-28T07:04:11.040Z,131.90
2022-09-28T07:06:39.735Z,134.70
2022-09-28T07:09:28.587Z,131.33
2022-09-28T07:11:57.520Z,131.10
2022-09-28T07:14:45.686Z,128.30
2022-09-28T07:17:14.885Z,119.57
2022-09-28T07:19:43.439Z,115.03
2022-09-28T07:22:18.865Z,114.33
2022-09-28T07:24:49.103Z,111.77
2022-09-28T07:27:20.010Z,109.93
2022-09-28T07:29:48.359Z,111.33
2022-09-28T07:32:16.505Z,111.67
2022-09-28T07:34:44.641Z,108.83
2022-09-28T07:37:13.536Z,108.30
2022-09-28T07:39:59.999Z,108.23
2022-09-28T07:42:30.483Z,108.67
2022-09-28T07:44:58.881Z,108.00
2022-09-28T07:47:32.298Z,108.37
2022-09-28T07:50:03.053Z,108.07
2022-09-28T07:52:36.328Z,113.50
2022-09-28T07:55:07.292Z,111.20
2022-09-28T07:57:37.164Z,108.17
2022-09-28T08:00:08.316Z,105.90
2022-09-28T08:02:36.723Z,109.20
2022-09-28T08:05:05.746Z,107.03
2022-09-28T08:07:34.601Z,108.27
2022-09-28T08:10:02.986Z,108.00
2022-09-28T08:12:31.160Z,109.83
2022-09-28T08:15:01.152Z,112.00
2022-09-28T08:17:29.560Z,110.70
2022-09-28T08:20:15.089Z,106.83
2022-09-28T08:22:43.381Z,106.93
2022-09-28T08:25:11.571Z,108.20
2022-09-28T08:27:39.699Z,107.20
2022-09-28T08:30:10.756Z,107.70
2022-09-28T08:32:38.940Z,107.17
2022-09-28T08:35:07.568Z,105.60
2022-09-28T08:37:35.692Z,106.60
2022-09-28T08:40:03.948Z,111.57
2022-09-28T08:42:36.567Z,106.30
2022-09-28T08:45:12.801Z,110.80
2022-09-28T08:48:11.203Z,110.57
2022-09-28T08:50:48.346Z,109.03
2022-09-28T08:53:28.877Z,107.73
2022-09-28T08:55:58.371Z,108.50
2022-09-28T08:58:33.851Z,109.90
2022-09-28T09:01:07.482Z,110.20
2022-09-28T09:03:39.569Z,113.40
2022-09-28T09:06:18.370Z,110.63
2022-09-28T09:08:55.973Z,110.03
2022-09-28T09:11:44.389Z,111.20
2022-09-28T09:14:40.185Z,106.27
2022-09-28T09:17:19.979Z,105.47
2022-09-28T09:19:54.412Z,105.40
2022-09-28T09:22:40.059Z,103.17
2022-09-28T09:25:20.402Z,105.57
2022-09-28T09:28:17.144Z,101.67
2022-09-28T09:30:53.364Z,102.30
2022-09-28T09:34:06.343Z,100.17
2022-09-28T09:36:56.314Z,96.90
2022-09-28T09:39:39.586Z,92.40
2022-09-28T09:42:23.617Z,94.30
2022-09-28T09:45:20.041Z,96.57
2022-09-28T09:47:53.546Z,95.70
2022-09-28T09:50:30.076Z,92.23
2022-09-28T09:53:06.103Z,91.43
2022-09-28T09:55:40.888Z,92.73
2022-09-28T09:58:12.377Z,94.87
2022-09-28T10:00:42.473Z,77.30
2022-09-28T10:03:20.701Z,71.13
2022-09-28T10:05:53.469Z,56.60
2022-09-28T10:08:25.073Z,41.17
2022-09-28T10:10:57.928Z,35.90
2022-09-28T10:13:29.281Z,24.20
2022-09-28T10:15:57.629Z,22.37
2022-09-28T10:18:26.095Z,22.17
2022-09-28T10:20:55.417Z,20.53
2022-09-28T10:23:28.907Z,21.93
2022-09-28T10:26:03.579Z,20.37
2022-09-28T10:28:40.622Z,20.30
2022-09-28T10:31:39.896Z,20.10
2022-09-28T10:34:09.895Z,19.97
2022-09-28T10:36:48.078Z,19.73
2022-09-28T10:39:34.363Z,19.53
2022-09-28T10:42:07.365Z,19.30
2022-09-28T10:44:45.701Z,19.40
2022-09-28T10:47:19.111Z,18.87
2022-09-28T10:49:50.716Z,18.80
2022-09-28T10:52:38.675Z,19.03
2022-09-28T10:55:30.657Z,19.70
2022-09-28T10:57:59.299Z,19.17
2022-09-28T11:00:38.773Z,18.33
2022-09-28T11:03:07.894Z,18.30
2022-09-28T11:05:37.076Z,19.10
2022-09-28T11:08:08.716Z,19.10
2022-09-28T11:10:39.917Z,18.83
2022-09-28T11:13:11.162Z,18.90
2022-09-28T11:15:44.488Z,19.97
2022-09-28T11:18:28.290Z,20.10
2022-09-28T11:21:12.626Z,19.70
2022-09-28T11:23:42.211Z,19.80
2022-09-28T11:26:17.709Z,19.00
2022-09-28T11:28:52.858Z,19.30
2022-09-28T11:31:28.313Z,18.80
2022-09-28T11:34:14.216Z,18.47
2022-09-28T11:37:08.582Z,18.20
2022-09-28T11:39:47.173Z,18.40
2022-09-28T11:42:32.639Z,18.93
2022-09-28T11:45:19.770Z,19.17
2022-09-28T11:47:55.252Z,18.83
2022-09-28T11:50:29.589Z,18.77
2022-09-28T11:53:05.404Z,18.30
2022-09-28T11:55:37.713Z,18.73
2022-09-28T11:58:13.130Z,18.67
2022-09-28T12:00:46.271Z,18.47
2022-09-28T12:03:18.124Z,18.87
2022-09-28T12:05:51.040Z,18.53
2022-09-28T12:08:25.565Z,18.60
2022-09-28T12:10:59.365Z,19.37
2022-09-28T12:13:31.142Z,19.53
2022-09-28T12:18:53.955Z,18.73
2022-09-28T12:21:43.759Z,19.13
2022-09-28T12:24:18.275Z,19.00
2022-09-28T12:26:53.497Z,18.57
2022-09-28T12:29:27.635Z,18.30
2022-09-28T12:32:04.290Z,18.17
2022-09-28T12:34:32.654Z,17.97
2022-09-28T12:37:14.358Z,18.33
2022-09-28T12:39:57.851Z,18.43
2022-09-28T12:42:49.338Z,18.13
2022-09-28T12:45:38.664Z,18.33
2022-09-28T12:48:36.272Z,18.57
2022-09-28T12:51:16.741Z,18.67
2022-09-28T12:54:08.824Z,18.57
2022-09-28T12:56:48.021Z,20.13
2022-09-28T12:59:22.202Z,19.00
2022-09-28T13:02:12.813Z,19.10
2022-09-28T13:04:53.189Z,19.00
2022-09-28T13:07:29.299Z,19.07
2022-09-28T13:10:14.810Z,18.60
2022-09-28T13:12:53.027Z,18.03
2022-09-28T13:15:36.054Z,18.40
2022-09-28T13:18:12.007Z,18.13
2022-09-28T13:20:54.514Z,18.43
2022-09-28T13:23:26.810Z,18.40
2022-09-28T13:26:00.509Z,19.30
2022-09-28T13:28:37.533Z,19.50
2022-09-28T13:31:11.212Z,19.33
2022-09-28T13:33:46.531Z,18.67
2022-09-28T13:36:38.043Z,19.90
2022-09-28T13:39:38.511Z,19.40
2022-09-28T13:42:12.262Z,20.10
2022-09-28T13:45:05.406Z,20.57
2022-09-28T13:47:59.055Z,20.90
2022-09-28T13:50:39.803Z,22.03
2022-09-28T13:53:19.224Z,23.70
2022-09-28T13:55:57.296Z,24.80
2022-09-28T13:58:32.127Z,26.60
2022-09-28T14:01:05.981Z,28.40
2022-09-28T14:03:55.050Z,31.40
2022-09-28T14:06:27.029Z,33.30
2022-09-28T14:09:40.391Z,35.83
2022-09-28T14:12:44.352Z,38.90
2022-09-28T14:15:48.295Z,42.30
2022-09-28T14:18:27.775Z,46.10
2022-09-28T14:21:21.688Z,49.93
2022-09-28T14:24:05.518Z,56.17
2022-09-28T14:27:06.233Z,57.80
2022-09-28T14:29:38.253Z,60.57
2022-09-28T14:32:23.822Z,60.10
2022-09-28T14:34:59.687Z,61.27
2022-09-28T14:37:48.733Z,62.30
2022-09-28T14:40:45.862Z,56.53
2022-09-28T14:43:28.206Z,49.03
2022-09-28T14:46:29.594Z,48.23
2022-09-28T14:49:01.811Z,45.73
2022-09-28T14:51:58.492Z,44.70
2022-09-28T14:54:40.250Z,43.50
2022-09-28T14:57:18.721Z,38.60
2022-09-28T15:00:17.366Z,38.83
2022-09-28T15:02:52.048Z,34.80
2022-09-28T15:05:25.441Z,33.40
2022-09-28T15:07:55.155Z,32.10
2022-09-28T15:10:28.310Z,31.90
2022-09-28T15:12:58.566Z,29.13
2022-09-28T15:15:34.576Z,29.37
2022-09-28T15:18:36.542Z,28.80
2022-09-28T15:21:05.271Z,27.07
2022-09-28T15:23:37.735Z,26.07
2022-09-28T15:26:08.526Z,26.63
2022-09-28T15:28:39.451Z,25.80
2022-09-28T15:31:07.859Z,26.77
2022-09-28T15:33:54.208Z,27.20
2022-09-28T15:36:25.504Z,27.37
2022-09-28T15:38:58.240Z,27.53
2022-09-28T15:41:28.845Z,27.07
2022-09-28T15:44:32.364Z,27.87
2022-09-28T15:47:13.921Z,25.43
2022-09-28T15:49:46.779Z,25.30
2022-09-28T15:52:36.075Z,25.00
2022-09-28T15:55:13.915Z,26.13
2022-09-28T15:57:44.100Z,25.77
2022-09-28T16:00:27.761Z,25.80
2022-09-28T16:03:05.698Z,26.27
2022-09-28T16:05:46.324Z,25.37
2022-09-28T16:08:21.487Z,26.97
2022-09-28T16:10:58.097Z,27.10
2022-09-28T16:13:27.754Z,27.33
2022-09-28T16:16:00.049Z,26.20
2022-09-28T16:18:30.301Z,26.13
2022-09-28T16:21:19.515Z,26.67
2022-09-28T16:23:52.175Z,26.03
2022-09-28T16:26:32.793Z,25.20
2022-09-28T16:29:02.169Z,25.63
2022-09-28T16:31:34.810Z,26.03
2022-09-28T16:34:21.109Z,25.13
2022-09-28T16:36:50.642Z,25.80
2022-09-28T16:39:20.695Z,25.27
2022-09-28T16:41:52.970Z,26.27
2022-09-28T16:44:25.848Z,25.67
2022-09-28T16:47:00.333Z,26.30
2022-09-28T16:49:28.599Z,25.23
2022-09-28T16:51:56.860Z,26.57
2022-09-28T16:54:43.804Z,26.10
2022-09-28T16:57:16.030Z,28.00
2022-09-28T16:59:44.331Z,27.77
2022-09-28T17:05:15.956Z,30.00
2022-09-28T17:07:45.583Z,28.23
2022-09-28T17:10:19.272Z,29.20
2022-09-28T17:12:47.620Z,31.97
2022-09-28T17:15:19.675Z,32.57
2022-09-28T17:17:50.624Z,36.10
2022-09-28T17:20:22.942Z,33.63
2022-09-28T17:22:51.550Z,33.07
2022-09-28T17:25:19.821Z,35.80
2022-09-28T17:27:50.030Z,35.80
2022-09-28T17:30:23.601Z,36.93
2022-09-28T17:32:55.331Z,39.00
2022-09-28T17:35:24.994Z,38.70
2022-09-28T17:37:53.845Z,36.70
2022-09-28T17:40:25.841Z,37.07
2022-09-28T17:42:56.624Z,38.50
2022-09-28T17:45:28.985Z,38.37
2022-09-28T17:47:59.248Z,43.00
2022-09-28T17:50:32.487Z,42.03
2022-09-28T17:53:06.141Z,43.93
2022-09-28T17:55:36.638Z,42.87
2022-09-28T17:58:16.199Z,40.57
2022-09-28T18:00:44.822Z,42.90
2022-09-28T18:03:19.867Z,45.00
2022-09-28T18:05:50.976Z,44.70
2022-09-28T18:08:21.389Z,46.83
2022-09-28T18:10:50.985Z,46.90
2022-09-28T18:13:19.177Z,47.30
2022-09-28T18:15:47.513Z,47.20
2022-09-28T18:18:17.033Z,49.37
2022-09-28T18:20:45.292Z,50.43
2022-09-28T18:23:13.618Z,51.30
2022-09-28T18:25:43.577Z,51.77
2022-09-28T18:28:11.947Z,52.33
2022-09-28T18:30:41.485Z,54.27
2022-09-28T18:33:10.585Z,55.57
2022-09-28T18:35:40.712Z,57.07
2022-09-28T18:38:09.032Z,59.20
2022-09-28T18:40:37.945Z,61.73
2022-09-28T18:43:06.328Z,59.77
2022-09-28T18:45:35.909Z,62.70
2022-09-28T18:48:04.121Z,65.00
2022-09-28T18:50:32.299Z,64.10
2022-09-28T18:53:12.405Z,61.87
2022-09-28T18:55:42.118Z,60.53
2022-09-28T18:58:12.338Z,60.60
2022-09-28T19:00:41.358Z,58.10
2022-09-28T19:03:14.343Z,60.23
2022-09-28T19:05:47.510Z,62.57
2022-09-28T19:08:17.081Z,62.87
2022-09-28T19:10:48.649Z,64.83
2022-09-28T19:13:16.836Z,64.57
2022-09-28T19:15:45.966Z,68.80
2022-09-28T19:18:14.861Z,71.60
2022-09-28T19:20:44.693Z,72.90
2022-09-28T19:23:13.342Z,72.77
2022-09-28T19:25:43.037Z,73.43
2022-09-28T19:28:11.266Z,74.80
2022-09-28T19:30:39.593Z,75.47
2022-09-28T19:33:07.970Z,76.07
2022-09-28T19:35:36.177Z,75.67
2022-09-28T19:38:04.424Z,77.80
2022-09-28T19:40:32.766Z,79.40
2022-09-28T19:43:04.508Z,81.60
2022-09-28T19:45:36.125Z,85.23
2022-09-28T19:48:04.583Z,82.50
2022-09-28T19:50:33.009Z,81.03
2022-09-28T19:53:01.857Z,81.93
2022-09-28T19:55:37.020Z,81.73
2022-09-28T19:58:06.785Z,83.50
2022-09-28T20:00:35.100Z,87.93
2022-09-28T20:03:04.760Z,86.53
2022-09-28T20:05:33.011Z,85.13
2022-09-28T20:08:01.131Z,85.00
2022-09-28T20:10:29.441Z,83.87
2022-09-28T20:12:58.996Z,88.10
2022-09-28T20:15:28.860Z,84.63
2022-09-28T20:17:58.121Z,88.60
2022-09-28T20:20:27.333Z,87.03
2022-09-28T20:22:55.658Z,89.07
2022-09-28T20:25:23.824Z,90.50
2022-09-28T20:27:52.970Z,89.87
2022-09-28T20:30:21.126Z,89.97
2022-09-28T20:32:50.692Z,90.13
2022-09-28T20:35:30.372Z,90.40
2022-09-28T20:38:07.903Z,90.53
2022-09-28T20:40:37.210Z,94.13
2022-09-28T20:43:06.658Z,96.43
2022-09-28T20:45:37.159Z,90.47
2022-09-28T20:48:08.732Z,92.17
2022-09-28T20:50:36.831Z,93.20
2022-09-28T20:53:05.084Z,96.00
2022-09-28T20:55:33.249Z,95.77
2022-09-28T20:58:04.319Z,95.60
2022-09-28T21:00:33.571Z,96.40
2022-09-28T21:03:01.937Z,94.93
2022-09-28T21:05:31.619Z,97.60
2022-09-28T21:07:59.918Z,97.00
2022-09-28T21:10:30.301Z,99.30
2022-09-28T21:12:58.500Z,98.10
2022-09-28T21:15:26.709Z,96.30
2022-09-28T21:17:56.944Z,98.37
2022-09-28T21:20:25.249Z,99.97
2022-09-28T21:22:54.803Z,99.63
2022-09-28T21:25:22.920Z,98.80
2022-09-28T21:27:57.047Z,98.87
2022-09-28T21:30:25.265Z,100.00
2022-09-28T21:32:53.521Z,99.07
2022-09-28T21:35:21.989Z,100.17
2022-09-28T21:37:50.220Z,95.80
2022-09-28T21:40:20.001Z,94.03
2022-09-28T21:42:48.445Z,93.87
2022-09-28T21:45:17.421Z,94.60
2022-09-28T21:47:52.735Z,97.50
2022-09-28T21:50:23.121Z,94.20
2022-09-28T21:52:52.019Z,96.73
2022-09-28T21:55:22.646Z,98.10
2022-09-28T21:57:52.531Z,99.50
2022-09-28T22:00:23.749Z,97.40
2022-09-28T22:02:52.286Z,96.93
2022-09-28T22:05:21.141Z,97.00
2022-09-28T22:07:49.391Z,98.40
2022-09-28T22:10:18.603Z,96.97
2022-09-28T22:12:50.554Z,98.60
2022-09-28T22:15:18.959Z,98.00
2022-09-28T22:17:47.226Z,100.17
2022-09-28T22:20:15.549Z,98.13
2022-09-28T22:22:43.735Z,98.60
2022-09-28T22:25:11.965Z,98.70
2022-09-28T22:27:40.652Z,101.70
2022-09-28T22:30:11.266Z,99.80
2022-09-28T22:32:39.661Z,99.47
2022-09-28T22:35:08.878Z,102.00
2022-09-28T22:37:38.052Z,100.30
2022-09-28T22:40:07.184Z,100.80
2022-09-28T22:42:35.402Z,101.20
2022-09-28T22:45:04.988Z,99.40
2022-09-28T22:47:34.639Z,100.67
2022-09-28T22:50:02.777Z,101.93
2022-09-28T22:52:30.918Z,102.80
2022-09-28T22:54:59.166Z,98.27
2022-09-28T22:57:27.462Z,102.70
2022-09-28T22:59:55.746Z,104.60
2022-09-28T23:02:23.997Z,102.30
2022-09-28T23:04:53.564Z,101.70
2022-09-28T23:07:21.681Z,101.37
2022-09-28T23:09:49.913Z,99.57
2022-09-28T23:12:18.134Z,102.13
2022-09-28T23:14:46.323Z,102.63
2022-09-28T23:17:14.640Z,101.57
2022-09-28T23:19:43.922Z,103.33
2022-09-28T23:22:13.570Z,103.03
2022-09-28T23:24:41.817Z,105.53
2022-09-28T23:27:10.083Z,104.87
2022-09-28T23:29:46.102Z,104.73
2022-09-28T23:32:14.673Z,105.60
2022-09-28T23:34:42.916Z,105.20
2022-09-28T23:37:11.234Z,104.70
2022-09-28T23:39:40.858Z,106.63
2022-09-28T23:42:08.982Z,106.23
2022-09-28T23:44:37.249Z,107.60
2022-09-28T23:47:05.506Z,106.67
2022-09-28T23:49:33.692Z,107.07
2022-09-28T23:52:03.136Z,108.87
2022-09-28T23:54:31.698Z,106.80
2022-09-28T23:57:02.247Z,107.53
2022-09-28T23:59:31.519Z,106.40
